sensor_id;sensor_type;location;lat;lon;timestamp;P1;durP1;ratioP1;P2;durP2;ratioP2
5209;SDS011;2624;48.048;11.706;2023-05-16T00:01:04;2.00;;;1.90;;
5209;SDS011;2624;48.048;11.706;2023-05-16T00:06:06;2.00;;;1.90;;
5209;SDS011;2624;48.048;11.706;2023-05-16T00:11:09;4.73;;;2.27;;
5209;SDS011;2624;48.048;11.706;2023-05-16T00:16:11;4.07;;;2.50;;
5209;SDS011;2624;48.048;11.706;2023-05-16T00:21:13;2.23;;;2.10;;
5209;SDS011;2624;48.048;11.706;2023-05-16T00:26:16;2.60;;;2.50;;
5209;SDS011;2624;48.048;11.706;2023-05-16T00:31:18;2.13;;;2.03;;
5209;SDS011;2624;48.048;11.706;2023-05-16T00:36:20;2.37;;;2.17;;
5209;SDS011;2624;48.048;11.706;2023-05-16T00:41:23;2.00;;;1.93;;
5209;SDS011;2624;48.048;11.706;2023-05-16T00:46:25;2.60;;;2.40;;
5209;SDS011;2624;48.048;11.706;2023-05-16T00:51:27;1.93;;;1.83;;
5209;SDS011;2624;48.048;11.706;2023-05-16T00:56:31;2.07;;;1.87;;
5209;SDS011;2624;48.048;11.706;2023-05-16T01:01:33;2.10;;;2.00;;
5209;SDS011;2624;48.048;11.706;2023-05-16T01:06:36;1.70;;;1.60;;
5209;SDS011;2624;48.048;11.706;2023-05-16T01:11:42;3.03;;;1.93;;
5209;SDS011;2624;48.048;11.706;2023-05-16T01:17:01;2.20;;;2.10;;
5209;SDS011;2624;48.048;11.706;2023-05-16T01:22:10;2.13;;;2.03;;
5209;SDS011;2624;48.048;11.706;2023-05-16T01:27:17;2.90;;;2.70;;
5209;SDS011;2624;48.048;11.706;2023-05-16T01:32:20;3.03;;;2.70;;
5209;SDS011;2624;48.048;11.706;2023-05-16T01:37:23;2.77;;;2.57;;
5209;SDS011;2624;48.048;11.706;2023-05-16T01:42:34;1.97;;;1.87;;
5209;SDS011;2624;48.048;11.706;2023-05-16T01:47:40;3.40;;;2.83;;
5209;SDS011;2624;48.048;11.706;2023-05-16T01:52:49;4.30;;;2.47;;
5209;SDS011;2624;48.048;11.706;2023-05-16T01:57:56;3.00;;;2.80;;
5209;SDS011;2624;48.048;11.706;2023-05-16T02:02:59;3.23;;;2.70;;
5209;SDS011;2624;48.048;11.706;2023-05-16T02:08:01;4.13;;;3.73;;
5209;SDS011;2624;48.048;11.706;2023-05-16T02:13:05;4.63;;;4.23;;
5209;SDS011;2624;48.048;11.706;2023-05-16T02:18:07;4.90;;;2.80;;
5209;SDS011;2624;48.048;11.706;2023-05-16T02:23:10;2.60;;;2.50;;
5209;SDS011;2624;48.048;11.706;2023-05-16T02:28:13;3.83;;;2.43;;
5209;SDS011;2624;48.048;11.706;2023-05-16T02:33:14;4.10;;;3.70;;
5209;SDS011;2624;48.048;11.706;2023-05-16T02:38:16;2.93;;;2.63;;
5209;SDS011;2624;48.048;11.706;2023-05-16T02:43:21;2.70;;;2.57;;
5209;SDS011;2624;48.048;11.706;2023-05-16T02:48:23;2.90;;;2.70;;
5209;SDS011;2624;48.048;11.706;2023-05-16T02:53:24;3.20;;;2.87;;
5209;SDS011;2624;48.048;11.706;2023-05-16T02:58:27;3.00;;;2.80;;
5209;SDS011;2624;48.048;11.706;2023-05-16T03:03:29;3.10;;;2.80;;
5209;SDS011;2624;48.048;11.706;2023-05-16T03:08:32;3.07;;;2.77;;
5209;SDS011;2624;48.048;11.706;2023-05-16T03:13:35;2.70;;;2.50;;
5209;SDS011;2624;48.048;11.706;2023-05-16T03:18:37;2.40;;;2.30;;
5209;SDS011;2624;48.048;11.706;2023-05-16T03:23:39;2.10;;;2.00;;
5209;SDS011;2624;48.048;11.706;2023-05-16T03:28:42;2.90;;;2.80;;
5209;SDS011;2624;48.048;11.706;2023-05-16T03:33:44;3.17;;;2.90;;
5209;SDS011;2624;48.048;11.706;2023-05-16T03:38:45;10.27;;;2.80;;
5209;SDS011;2624;48.048;11.706;2023-05-16T03:43:49;3.63;;;2.60;;
5209;SDS011;2624;48.048;11.706;2023-05-16T03:48:50;1.83;;;1.73;;
5209;SDS011;2624;48.048;11.706;2023-05-16T03:53:52;3.73;;;3.43;;
5209;SDS011;2624;48.048;11.706;2023-05-16T03:58:55;2.80;;;2.70;;
5209;SDS011;2624;48.048;11.706;2023-05-16T04:03:57;3.53;;;3.10;;
5209;SDS011;2624;48.048;11.706;2023-05-16T04:08:59;2.37;;;2.13;;
5209;SDS011;2624;48.048;11.706;2023-05-16T04:14:02;2.60;;;2.40;;
5209;SDS011;2624;48.048;11.706;2023-05-16T04:19:04;3.50;;;2.90;;
5209;SDS011;2624;48.048;11.706;2023-05-16T04:24:06;5.27;;;3.73;;
5209;SDS011;2624;48.048;11.706;2023-05-16T04:29:09;4.03;;;3.70;;
5209;SDS011;2624;48.048;11.706;2023-05-16T04:34:13;10.20;;;3.53;;
5209;SDS011;2624;48.048;11.706;2023-05-16T04:39:15;4.23;;;3.10;;
5209;SDS011;2624;48.048;11.706;2023-05-16T04:44:18;3.77;;;2.47;;
5209;SDS011;2624;48.048;11.706;2023-05-16T04:49:20;4.20;;;3.40;;
5209;SDS011;2624;48.048;11.706;2023-05-16T04:54:22;3.00;;;2.80;;
5209;SDS011;2624;48.048;11.706;2023-05-16T04:59:26;3.43;;;3.07;;
5209;SDS011;2624;48.048;11.706;2023-05-16T05:04:28;3.17;;;2.97;;
5209;SDS011;2624;48.048;11.706;2023-05-16T05:09:30;5.20;;;3.97;;
5209;SDS011;2624;48.048;11.706;2023-05-16T05:14:33;8.27;;;4.60;;
5209;SDS011;2624;48.048;11.706;2023-05-16T05:19:35;4.37;;;3.60;;
5209;SDS011;2624;48.048;11.706;2023-05-16T05:24:37;4.13;;;3.70;;
5209;SDS011;2624;48.048;11.706;2023-05-16T05:29:40;5.83;;;4.20;;
5209;SDS011;2624;48.048;11.706;2023-05-16T05:34:41;6.00;;;5.10;;
5209;SDS011;2624;48.048;11.706;2023-05-16T05:39:43;7.10;;;4.47;;
5209;SDS011;2624;48.048;11.706;2023-05-16T05:44:46;7.93;;;4.50;;
5209;SDS011;2624;48.048;11.706;2023-05-16T05:49:48;6.03;;;3.80;;
5209;SDS011;2624;48.048;11.706;2023-05-16T05:54:50;7.30;;;4.80;;
5209;SDS011;2624;48.048;11.706;2023-05-16T05:59:53;8.20;;;4.90;;
5209;SDS011;2624;48.048;11.706;2023-05-16T06:04:55;5.03;;;4.57;;
5209;SDS011;2624;48.048;11.706;2023-05-16T06:09:57;6.90;;;4.87;;
5209;SDS011;2624;48.048;11.706;2023-05-16T06:15:05;6.03;;;4.57;;
5209;SDS011;2624;48.048;11.706;2023-05-16T06:20:07;5.87;;;4.57;;
5209;SDS011;2624;48.048;11.706;2023-05-16T06:25:10;9.00;;;4.67;;
5209;SDS011;2624;48.048;11.706;2023-05-16T06:30:13;6.57;;;5.17;;
5209;SDS011;2624;48.048;11.706;2023-05-16T06:35:15;6.40;;;5.60;;
5209;SDS011;2624;48.048;11.706;2023-05-16T06:40:17;7.27;;;4.90;;
5209;SDS011;2624;48.048;11.706;2023-05-16T06:45:20;7.63;;;5.53;;
5209;SDS011;2624;48.048;11.706;2023-05-16T06:50:22;9.90;;;6.20;;
5209;SDS011;2624;48.048;11.706;2023-05-16T06:55:24;12.37;;;5.80;;
5209;SDS011;2624;48.048;11.706;2023-05-16T07:00:27;13.33;;;5.40;;
5209;SDS011;2624;48.048;11.706;2023-05-16T07:05:28;5.60;;;4.87;;
5209;SDS011;2624;48.048;11.706;2023-05-16T07:10:30;8.30;;;5.47;;
5209;SDS011;2624;48.048;11.706;2023-05-16T07:15:33;11.03;;;6.00;;
5209;SDS011;2624;48.048;11.706;2023-05-16T07:20:35;6.90;;;5.63;;
5209;SDS011;2624;48.048;11.706;2023-05-16T07:25:37;7.17;;;5.60;;
5209;SDS011;2624;48.048;11.706;2023-05-16T07:30:40;12.47;;;7.60;;
5209;SDS011;2624;48.048;11.706;2023-05-16T07:35:42;7.57;;;6.17;;
5209;SDS011;2624;48.048;11.706;2023-05-16T07:40:43;9.10;;;6.40;;
5209;SDS011;2624;48.048;11.706;2023-05-16T07:45:46;9.67;;;6.80;;
5209;SDS011;2624;48.048;11.706;2023-05-16T07:50:48;10.30;;;7.23;;
5209;SDS011;2624;48.048;11.706;2023-05-16T07:55:50;9.07;;;6.83;;
5209;SDS011;2624;48.048;11.706;2023-05-16T08:00:53;14.87;;;7.70;;
5209;SDS011;2624;48.048;11.706;2023-05-16T08:05:55;10.70;;;7.00;;
5209;SDS011;2624;48.048;11.706;2023-05-16T08:10:57;10.70;;;7.30;;
5209;SDS011;2624;48.048;11.706;2023-05-16T08:16:00;10.60;;;7.60;;
5209;SDS011;2624;48.048;11.706;2023-05-16T08:21:02;11.63;;;7.00;;
5209;SDS011;2624;48.048;11.706;2023-05-16T08:26:04;6.63;;;5.93;;
5209;SDS011;2624;48.048;11.706;2023-05-16T08:31:07;11.53;;;6.30;;
5209;SDS011;2624;48.048;11.706;2023-05-16T08:36:09;10.10;;;7.93;;
5209;SDS011;2624;48.048;11.706;2023-05-16T08:41:10;11.57;;;6.60;;
5209;SDS011;2624;48.048;11.706;2023-05-16T08:46:14;18.80;;;9.73;;
5209;SDS011;2624;48.048;11.706;2023-05-16T08:51:20;12.07;;;9.40;;
5209;SDS011;2624;48.048;11.706;2023-05-16T08:56:25;14.03;;;8.60;;
5209;SDS011;2624;48.048;11.706;2023-05-16T09:01:28;11.80;;;7.70;;
5209;SDS011;2624;48.048;11.706;2023-05-16T09:06:31;15.67;;;8.60;;
5209;SDS011;2624;48.048;11.706;2023-05-16T09:11:32;11.47;;;8.03;;
5209;SDS011;2624;48.048;11.706;2023-05-16T09:16:36;13.03;;;8.87;;
5209;SDS011;2624;48.048;11.706;2023-05-16T09:21:38;10.90;;;7.30;;
5209;SDS011;2624;48.048;11.706;2023-05-16T09:26:40;17.40;;;7.97;;
5209;SDS011;2624;48.048;11.706;2023-05-16T09:31:48;14.90;;;10.40;;
5209;SDS011;2624;48.048;11.706;2023-05-16T09:36:53;12.60;;;8.07;;
5209;SDS011;2624;48.048;11.706;2023-05-16T09:41:54;12.87;;;9.07;;
5209;SDS011;2624;48.048;11.706;2023-05-16T09:46:59;11.60;;;7.80;;
5209;SDS011;2624;48.048;11.706;2023-05-16T09:52:01;13.60;;;8.30;;
5209;SDS011;2624;48.048;11.706;2023-05-16T09:57:04;12.90;;;7.87;;
5209;SDS011;2624;48.048;11.706;2023-05-16T10:02:07;11.67;;;8.23;;
5209;SDS011;2624;48.048;11.706;2023-05-16T10:07:10;10.90;;;9.27;;
5209;SDS011;2624;48.048;11.706;2023-05-16T10:12:12;13.30;;;9.43;;
5209;SDS011;2624;48.048;11.706;2023-05-16T10:17:17;14.00;;;10.17;;
5209;SDS011;2624;48.048;11.706;2023-05-16T10:22:19;13.13;;;9.93;;
5209;SDS011;2624;48.048;11.706;2023-05-16T10:27:23;13.17;;;8.53;;
5209;SDS011;2624;48.048;11.706;2023-05-16T10:32:26;18.03;;;9.10;;
5209;SDS011;2624;48.048;11.706;2023-05-16T10:37:29;16.67;;;11.27;;
5209;SDS011;2624;48.048;11.706;2023-05-16T10:42:32;15.17;;;9.37;;
5209;SDS011;2624;48.048;11.706;2023-05-16T10:47:35;14.20;;;9.47;;
5209;SDS011;2624;48.048;11.706;2023-05-16T10:52:37;16.80;;;10.33;;
5209;SDS011;2624;48.048;11.706;2023-05-16T10:57:39;14.53;;;8.17;;
5209;SDS011;2624;48.048;11.706;2023-05-16T11:02:46;12.83;;;8.90;;
5209;SDS011;2624;48.048;11.706;2023-05-16T11:07:48;22.07;;;9.73;;
5209;SDS011;2624;48.048;11.706;2023-05-16T11:13:06;12.87;;;9.10;;
5209;SDS011;2624;48.048;11.706;2023-05-16T11:18:13;17.63;;;9.50;;
5209;SDS011;2624;48.048;11.706;2023-05-16T11:23:19;5.73;;;4.57;;
5209;SDS011;2624;48.048;11.706;2023-05-16T11:28:23;12.73;;;9.10;;
5209;SDS011;2624;48.048;11.706;2023-05-16T11:33:29;15.60;;;10.67;;
5209;SDS011;2624;48.048;11.706;2023-05-16T11:38:34;24.43;;;9.30;;
5209;SDS011;2624;48.048;11.706;2023-05-16T11:43:36;13.03;;;9.97;;
5209;SDS011;2624;48.048;11.706;2023-05-16T11:48:40;7.90;;;5.30;;
5209;SDS011;2624;48.048;11.706;2023-05-16T11:53:45;11.47;;;7.70;;
5209;SDS011;2624;48.048;11.706;2023-05-16T11:58:48;11.17;;;7.67;;
5209;SDS011;2624;48.048;11.706;2023-05-16T12:03:55;14.10;;;9.40;;
5209;SDS011;2624;48.048;11.706;2023-05-16T12:08:57;13.73;;;8.80;;
5209;SDS011;2624;48.048;11.706;2023-05-16T12:14:02;16.97;;;11.00;;
5209;SDS011;2624;48.048;11.706;2023-05-16T12:19:05;16.50;;;10.53;;
5209;SDS011;2624;48.048;11.706;2023-05-16T12:24:08;18.23;;;9.73;;
5209;SDS011;2624;48.048;11.706;2023-05-16T12:29:11;15.67;;;9.80;;
5209;SDS011;2624;48.048;11.706;2023-05-16T12:34:15;14.23;;;9.27;;
5209;SDS011;2624;48.048;11.706;2023-05-16T12:39:18;12.70;;;9.10;;
5209;SDS011;2624;48.048;11.706;2023-05-16T12:44:20;13.93;;;9.30;;
5209;SDS011;2624;48.048;11.706;2023-05-16T12:49:24;14.57;;;10.93;;
5209;SDS011;2624;48.048;11.706;2023-05-16T12:54:26;15.00;;;10.47;;
5209;SDS011;2624;48.048;11.706;2023-05-16T12:59:28;9.63;;;7.90;;
5209;SDS011;2624;48.048;11.706;2023-05-16T13:04:31;10.67;;;8.33;;
5209;SDS011;2624;48.048;11.706;2023-05-16T13:09:35;13.13;;;7.67;;
5209;SDS011;2624;48.048;11.706;2023-05-16T13:14:37;9.10;;;6.23;;
5209;SDS011;2624;48.048;11.706;2023-05-16T13:19:40;14.30;;;6.00;;
5209;SDS011;2624;48.048;11.706;2023-05-16T13:24:42;8.97;;;7.37;;
5209;SDS011;2624;48.048;11.706;2023-05-16T13:29:44;7.37;;;6.60;;
5209;SDS011;2624;48.048;11.706;2023-05-16T13:34:47;11.97;;;9.17;;
5209;SDS011;2624;48.048;11.706;2023-05-16T13:39:49;14.50;;;8.90;;
5209;SDS011;2624;48.048;11.706;2023-05-16T13:44:51;14.00;;;8.60;;
5209;SDS011;2624;48.048;11.706;2023-05-16T13:49:54;15.07;;;9.47;;
5209;SDS011;2624;48.048;11.706;2023-05-16T13:55:16;38.67;;;12.33;;
5209;SDS011;2624;48.048;11.706;2023-05-16T14:00:18;22.33;;;10.47;;
5209;SDS011;2624;48.048;11.706;2023-05-16T14:05:20;11.00;;;7.80;;
5209;SDS011;2624;48.048;11.706;2023-05-16T14:10:23;4.90;;;4.43;;
5209;SDS011;2624;48.048;11.706;2023-05-16T14:15:25;6.80;;;5.33;;
5209;SDS011;2624;48.048;11.706;2023-05-16T14:20:27;16.30;;;5.10;;
5209;SDS011;2624;48.048;11.706;2023-05-16T14:25:30;9.23;;;4.53;;
5209;SDS011;2624;48.048;11.706;2023-05-16T14:30:32;2.87;;;2.67;;
5209;SDS011;2624;48.048;11.706;2023-05-16T14:35:34;2.33;;;1.80;;
5209;SDS011;2624;48.048;11.706;2023-05-16T14:40:38;5.80;;;4.20;;
5209;SDS011;2624;48.048;11.706;2023-05-16T14:45:40;14.23;;;4.60;;
5209;SDS011;2624;48.048;11.706;2023-05-16T14:50:42;9.40;;;5.70;;
5209;SDS011;2624;48.048;11.706;2023-05-16T14:55:45;7.50;;;5.40;;
5209;SDS011;2624;48.048;11.706;2023-05-16T15:00:47;4.10;;;2.70;;
5209;SDS011;2624;48.048;11.706;2023-05-16T15:05:49;15.63;;;4.60;;
5209;SDS011;2624;48.048;11.706;2023-05-16T15:10:52;3.20;;;3.00;;
5209;SDS011;2624;48.048;11.706;2023-05-16T15:15:54;3.37;;;3.13;;
5209;SDS011;2624;48.048;11.706;2023-05-16T15:20:56;3.83;;;3.53;;
5209;SDS011;2624;48.048;11.706;2023-05-16T15:25:59;5.43;;;5.03;;
5209;SDS011;2624;48.048;11.706;2023-05-16T15:31:01;5.70;;;5.20;;
5209;SDS011;2624;48.048;11.706;2023-05-16T15:36:04;7.53;;;5.17;;
5209;SDS011;2624;48.048;11.706;2023-05-16T15:41:08;5.50;;;4.43;;
5209;SDS011;2624;48.048;11.706;2023-05-16T15:46:09;1.50;;;1.43;;
5209;SDS011;2624;48.048;11.706;2023-05-16T15:51:12;4.03;;;2.70;;
5209;SDS011;2624;48.048;11.706;2023-05-16T15:56:16;5.63;;;5.13;;
5209;SDS011;2624;48.048;11.706;2023-05-16T16:01:17;7.17;;;5.27;;
5209;SDS011;2624;48.048;11.706;2023-05-16T16:06:19;9.20;;;5.77;;
5209;SDS011;2624;48.048;11.706;2023-05-16T16:11:22;5.20;;;4.63;;
5209;SDS011;2624;48.048;11.706;2023-05-16T16:16:26;5.47;;;4.77;;
5209;SDS011;2624;48.048;11.706;2023-05-16T16:21:28;7.00;;;5.40;;
5209;SDS011;2624;48.048;11.706;2023-05-16T16:26:31;4.47;;;4.07;;
5209;SDS011;2624;48.048;11.706;2023-05-16T16:31:33;7.30;;;5.50;;
5209;SDS011;2624;48.048;11.706;2023-05-16T16:36:35;6.27;;;5.60;;
5209;SDS011;2624;48.048;11.706;2023-05-16T16:41:38;5.97;;;5.47;;
5209;SDS011;2624;48.048;11.706;2023-05-16T16:46:39;5.70;;;4.57;;
5209;SDS011;2624;48.048;11.706;2023-05-16T16:51:41;6.57;;;5.43;;
5209;SDS011;2624;48.048;11.706;2023-05-16T16:56:45;5.67;;;5.03;;
5209;SDS011;2624;48.048;11.706;2023-05-16T17:01:48;5.97;;;5.10;;
5209;SDS011;2624;48.048;11.706;2023-05-16T17:06:50;9.03;;;6.03;;
5209;SDS011;2624;48.048;11.706;2023-05-16T17:11:53;7.23;;;5.20;;
5209;SDS011;2624;48.048;11.706;2023-05-16T17:16:55;6.47;;;5.03;;
5209;SDS011;2624;48.048;11.706;2023-05-16T17:21:57;6.80;;;5.70;;
5209;SDS011;2624;48.048;11.706;2023-05-16T17:27:00;7.87;;;6.67;;
5209;SDS011;2624;48.048;11.706;2023-05-16T17:32:01;8.53;;;5.97;;
5209;SDS011;2624;48.048;11.706;2023-05-16T17:37:03;6.47;;;4.93;;
5209;SDS011;2624;48.048;11.706;2023-05-16T17:42:07;8.17;;;6.00;;
5209;SDS011;2624;48.048;11.706;2023-05-16T17:47:10;7.47;;;6.70;;
5209;SDS011;2624;48.048;11.706;2023-05-16T17:52:12;10.60;;;6.30;;
5209;SDS011;2624;48.048;11.706;2023-05-16T17:57:15;8.87;;;6.20;;
5209;SDS011;2624;48.048;11.706;2023-05-16T18:02:17;5.47;;;4.97;;
5209;SDS011;2624;48.048;11.706;2023-05-16T18:07:19;10.30;;;7.20;;
5209;SDS011;2624;48.048;11.706;2023-05-16T18:12:22;5.00;;;3.97;;
5209;SDS011;2624;48.048;11.706;2023-05-16T18:17:24;9.43;;;5.87;;
5209;SDS011;2624;48.048;11.706;2023-05-16T18:22:26;7.30;;;5.60;;
5209;SDS011;2624;48.048;11.706;2023-05-16T18:27:29;11.80;;;6.60;;
5209;SDS011;2624;48.048;11.706;2023-05-16T18:32:31;8.90;;;7.10;;
5209;SDS011;2624;48.048;11.706;2023-05-16T18:37:33;8.47;;;5.93;;
5209;SDS011;2624;48.048;11.706;2023-05-16T18:42:36;10.77;;;6.87;;
5209;SDS011;2624;48.048;11.706;2023-05-16T18:47:38;7.63;;;6.33;;
5209;SDS011;2624;48.048;11.706;2023-05-16T18:52:41;7.47;;;6.70;;
5209;SDS011;2624;48.048;11.706;2023-05-16T18:57:44;11.17;;;6.67;;
5209;SDS011;2624;48.048;11.706;2023-05-16T19:02:45;6.50;;;5.87;;
5209;SDS011;2624;48.048;11.706;2023-05-16T19:07:47;9.63;;;7.07;;
5209;SDS011;2624;48.048;11.706;2023-05-16T19:12:50;9.10;;;7.53;;
5209;SDS011;2624;48.048;11.706;2023-05-16T19:17:52;7.10;;;4.67;;
5209;SDS011;2624;48.048;11.706;2023-05-16T19:22:54;10.87;;;6.70;;
5209;SDS011;2624;48.048;11.706;2023-05-16T19:27:57;8.60;;;7.00;;
5209;SDS011;2624;48.048;11.706;2023-05-16T19:32:59;8.00;;;6.47;;
5209;SDS011;2624;48.048;11.706;2023-05-16T19:38:01;10.63;;;7.23;;
5209;SDS011;2624;48.048;11.706;2023-05-16T19:43:04;5.87;;;5.27;;
5209;SDS011;2624;48.048;11.706;2023-05-16T19:48:06;8.60;;;3.00;;
5209;SDS011;2624;48.048;11.706;2023-05-16T19:53:08;3.87;;;2.73;;
5209;SDS011;2624;48.048;11.706;2023-05-16T19:58:11;5.20;;;4.07;;
5209;SDS011;2624;48.048;11.706;2023-05-16T20:03:13;6.13;;;5.37;;
5209;SDS011;2624;48.048;11.706;2023-05-16T20:08:15;5.23;;;4.37;;
5209;SDS011;2624;48.048;11.706;2023-05-16T20:13:18;4.47;;;4.07;;
5209;SDS011;2624;48.048;11.706;2023-05-16T20:18:20;4.50;;;3.83;;
5209;SDS011;2624;48.048;11.706;2023-05-16T20:23:21;4.00;;;3.60;;
5209;SDS011;2624;48.048;11.706;2023-05-16T20:28:25;3.90;;;2.77;;
5209;SDS011;2624;48.048;11.706;2023-05-16T20:33:26;1.77;;;1.67;;
5209;SDS011;2624;48.048;11.706;2023-05-16T20:38:28;4.07;;;3.77;;
5209;SDS011;2624;48.048;11.706;2023-05-16T20:43:31;7.80;;;4.13;;
5209;SDS011;2624;48.048;11.706;2023-05-16T20:48:33;3.53;;;3.20;;
5209;SDS011;2624;48.048;11.706;2023-05-16T20:53:35;3.33;;;2.20;;
5209;SDS011;2624;48.048;11.706;2023-05-16T20:58:38;2.40;;;2.27;;
5209;SDS011;2624;48.048;11.706;2023-05-16T21:03:41;4.57;;;2.10;;
5209;SDS011;2624;48.048;11.706;2023-05-16T21:08:42;8.00;;;3.97;;
5209;SDS011;2624;48.048;11.706;2023-05-16T21:13:45;3.60;;;3.30;;
5209;SDS011;2624;48.048;11.706;2023-05-16T21:18:47;4.57;;;4.10;;
5209;SDS011;2624;48.048;11.706;2023-05-16T21:23:49;1.57;;;1.53;;
5209;SDS011;2624;48.048;11.706;2023-05-16T21:28:52;6.00;;;3.57;;
5209;SDS011;2624;48.048;11.706;2023-05-16T21:33:54;1.53;;;1.43;;
5209;SDS011;2624;48.048;11.706;2023-05-16T21:38:56;2.73;;;2.53;;
5209;SDS011;2624;48.048;11.706;2023-05-16T21:43:59;3.00;;;2.80;;
5209;SDS011;2624;48.048;11.706;2023-05-16T21:49:01;1.80;;;1.40;;
5209;SDS011;2624;48.048;11.706;2023-05-16T21:54:02;2.37;;;2.17;;
5209;SDS011;2624;48.048;11.706;2023-05-16T21:59:06;1.70;;;1.47;;
5209;SDS011;2624;48.048;11.706;2023-05-16T22:04:07;2.63;;;1.70;;
5209;SDS011;2624;48.048;11.706;2023-05-16T22:09:09;1.33;;;1.23;;
5209;SDS011;2624;48.048;11.706;2023-05-16T22:14:13;2.80;;;2.60;;
5209;SDS011;2624;48.048;11.706;2023-05-16T22:19:14;2.73;;;2.17;;
5209;SDS011;2624;48.048;11.706;2023-05-16T22:24:16;2.60;;;2.00;;
5209;SDS011;2624;48.048;11.706;2023-05-16T22:29:19;3.17;;;1.83;;
5209;SDS011;2624;48.048;11.706;2023-05-16T22:34:21;2.03;;;1.93;;
5209;SDS011;2624;48.048;11.706;2023-05-16T22:39:23;1.70;;;1.37;;
5209;SDS011;2624;48.048;11.706;2023-05-16T22:44:26;6.00;;;1.77;;
5209;SDS011;2624;48.048;11.706;2023-05-16T22:49:28;0.97;;;0.87;;
5209;SDS011;2624;48.048;11.706;2023-05-16T22:54:29;5.60;;;2.00;;
5209;SDS011;2624;48.048;11.706;2023-05-16T22:59:32;2.50;;;1.60;;
5209;SDS011;2624;48.048;11.706;2023-05-16T23:04:34;4.57;;;1.80;;
5209;SDS011;2624;48.048;11.706;2023-05-16T23:09:36;1.30;;;0.73;;
5209;SDS011;2624;48.048;11.706;2023-05-16T23:14:39;1.00;;;1.00;;
5209;SDS011;2624;48.048;11.706;2023-05-16T23:19:41;6.30;;;2.10;;
5209;SDS011;2624;48.048;11.706;2023-05-16T23:24:42;1.80;;;1.27;;
5209;SDS011;2624;48.048;11.706;2023-05-16T23:29:45;3.40;;;1.77;;
5209;SDS011;2624;48.048;11.706;2023-05-16T23:34:47;3.83;;;0.70;;
5209;SDS011;2624;48.048;11.706;2023-05-16T23:39:49;1.40;;;1.30;;
5209;SDS011;2624;48.048;11.706;2023-05-16T23:44:52;6.53;;;1.40;;
5209;SDS011;2624;48.048;11.706;2023-05-16T23:49:54;5.33;;;1.43;;
5209;SDS011;2624;48.048;11.706;2023-05-16T23:54:56;5.40;;;2.03;;
5209;SDS011;2624;48.048;11.706;2023-05-16T23:59:59;1.27;;;1.17;;
